Huvudsida
METAR-TAF:

METAR-TAF

Flygplatser :

Pärnu flygplats

Pärnu, Estland

latitud: 58-25-09N, longitud: 024-28-22E, höjd: 14 m

Aktuellt väderrapport

Denna rapport gjordes för 37 minuter sedan, klockan 09:50 UTC
Vind 12 kt från ost/nordost, varierande mellan nord/nordost och ost/sydost
Temperatur 20°C
Fuktighet 30%
Tryck 1022 hPa
Sikt 10 km eller mer

METAR: EEPU 210950Z AUTO 06012KT 030V110 9999 NCD 20/02 Q1022

Tid: 13:27 (10:27 UTC)


TAF: saknas

Aktuella väderrapporter och prognoser från 4000 flygplatser (METAR- och TAF-rapporter).

De tillgängliga stationerna syns som gula och röda prickar på kartan.

För musen över prickarna för att se namnen på stationerna.

Klicka sedan för att få väderrapporter och prognoser.

För att ändra kartan: Klicka på de gröna knapparna med ett svart kors på för att zooma in; den gröna knappen med ett streck på för att zooma ut; eller på de gröna pilarna för angränsande kartor.


METAR-TAF: